Time;durP1;ratioP1;P1;durP2;ratioP2;P2;SDS_P1;SDS_P2;PMS_P1;PMS_P2;Temp;Humidity;BMP_temperature;BMP_pressure;BME280_temperature;BME280_humidity;BME280_pressure;Samples;Min_cycle;Max_cycle;Signal;HPM_P1;HPM_P2
2022/07/09 00:01:03;;;;;;;;;6.00;6.00;;;;;24.27;42.26;102431.28;5057240;28;46305;-72
2022/07/09 00:03:29;;;;;;;;;8.00;7.67;;;;;24.26;41.84;102434.91;5055237;28;45624;-73
2022/07/09 00:05:55;;;;;;;;;6.00;6.00;;;;;24.22;42.09;102426.06;5053518;28;45498;-72
2022/07/09 00:08:20;;;;;;;;;6.00;4.00;;;;;24.22;42.69;102431.41;5052559;28;45878;-73
2022/07/09 00:10:46;;;;;;;;;6.67;6.67;;;;;24.11;42.47;102412.13;5034727;28;47557;-72
2022/07/09 00:13:12;;;;;;;;;5.33;5.33;;;;;24.11;42.46;102418.34;5053269;28;45339;-73
2022/07/09 00:15:37;;;;;;;;;8.33;5.33;;;;;24.12;42.53;102420.09;5054345;28;46483;-72
2022/07/09 00:18:03;;;;;;;;;7.00;7.00;;;;;24.20;42.43;102435.06;5050367;28;45639;-72
2022/07/09 00:20:29;;;;;;;;;7.33;6.00;;;;;23.95;42.84;102395.63;5050873;28;46185;-72
2022/07/09 00:22:54;;;;;;;;;9.00;7.33;;;;;24.17;42.53;102432.47;5056793;28;45532;-72
2022/07/09 00:25:20;;;;;;;;;9.00;7.00;;;;;24.10;43.18;102419.25;5054493;28;46422;-71
2022/07/09 00:27:46;;;;;;;;;6.00;5.00;;;;;24.16;42.87;102423.59;5052544;28;45934;-72
2022/07/09 00:30:12;;;;;;;;;9.67;6.67;;;;;24.16;43.04;102425.38;5056075;28;46194;-71
2022/07/09 00:32:37;;;;;;;;;5.67;5.67;;;;;24.15;42.83;102421.81;5052483;28;45995;-72
2022/07/09 00:35:03;;;;;;;;;7.00;7.00;;;;;24.01;43.13;102402.59;5049551;28;45610;-69
2022/07/09 00:37:29;;;;;;;;;7.00;5.67;;;;;24.11;43.01;102420.16;5050699;28;45901;-68
2022/07/09 00:39:54;;;;;;;;;7.00;6.00;;;;;24.10;43.21;102413.91;5034257;28;47713;-71
2022/07/09 00:42:24;;;;;;;;;7.33;6.00;;;;;24.10;43.11;102413.03;5052799;28;45304;-73
2022/07/09 00:44:50;;;;;;;;;8.00;6.00;;;;;24.09;43.08;102414.84;5055535;28;45426;-70
2022/07/09 00:47:16;;;;;;;;;8.00;6.67;;;;;24.02;43.14;102402.56;5057078;28;45452;-72
2022/07/09 00:49:42;;;;;;;;;7.67;7.33;;;;;24.07;43.25;102408.66;5054452;28;46289;-71
2022/07/09 00:52:12;;;;;;;;;9.33;7.33;;;;;24.06;43.13;102411.34;5049154;28;45531;-72
2022/07/09 00:54:38;;;;;;;;;7.33;6.00;;;;;24.00;43.43;102403.50;5054655;28;45681;-74
2022/07/09 00:57:07;;;;;;;;;8.00;8.00;;;;;23.90;43.68;102393.06;5052821;28;45429;-71
2022/07/09 00:59:34;;;;;;;;;7.33;6.33;;;;;23.90;43.50;102403.75;5051324;28;45864;-70
2022/07/09 01:02:00;;;;;;;;;8.33;8.00;;;;;23.96;43.48;102408.06;5051166;28;45537;-71
2022/07/09 01:04:26;;;;;;;;;7.00;7.00;;;;;23.85;43.43;102386.09;5053667;28;45592;-71
2022/07/09 01:06:52;;;;;;;;;6.67;4.67;;;;;23.86;43.42;102398.53;5053191;28;45490;-71
2022/07/09 01:09:17;;;;;;;;;6.00;6.00;;;;;23.93;43.69;102413.50;5051582;28;45970;-71
2022/07/09 01:11:43;;;;;;;;;9.00;7.00;;;;;23.84;43.62;102393.22;5051669;28;45433;-72
2022/07/09 01:14:08;;;;;;;;;6.00;6.00;;;;;23.90;43.64;102402.91;5050695;28;45551;-71
2022/07/09 01:16:37;;;;;;;;;8.00;8.00;;;;;23.84;43.84;102392.34;5050741;28;45541;-72
2022/07/09 01:19:03;;;;;;;;;9.00;7.67;;;;;23.69;44.70;102374.88;5051624;28;46041;-69
2022/07/09 01:21:29;;;;;;;;;9.00;7.00;;;;;23.62;44.89;102400.03;5050418;28;45642;-70
2022/07/09 01:23:54;;;;;;;;;7.00;7.00;;;;;23.46;45.29;102381.72;5054512;28;45328;-72
2022/07/09 01:26:20;;;;;;;;;6.00;6.00;;;;;23.45;44.92;102373.75;5054307;28;45384;-72
2022/07/09 01:28:47;;;;;;;;;7.33;6.00;;;;;23.23;44.77;102342.22;5048056;28;46010;-70
2022/07/09 01:31:13;;;;;;;;;6.00;6.00;;;;;23.57;44.73;102385.91;5046582;28;45571;-73
2022/07/09 01:33:39;;;;;;;;;7.33;7.33;;;;;23.52;44.47;102379.81;5043753;28;45462;-71
2022/07/09 01:36:06;;;;;;;;;4.00;4.00;;;;;23.58;44.62;102388.53;5049037;28;45575;-72
2022/07/09 01:38:31;;;;;;;;;6.33;6.00;;;;;23.62;44.23;102389.34;5036325;28;45974;-69
2022/07/09 01:40:57;;;;;;;;;7.00;7.00;;;;;23.48;45.35;102376.34;5047910;28;45530;-71
2022/07/09 01:43:23;;;;;;;;;6.67;6.67;;;;;23.51;45.07;102386.94;5039919;28;45487;-71
2022/07/09 01:45:48;;;;;;;;;9.33;9.00;;;;;23.51;45.07;102389.63;5043596;28;46032;-71
2022/07/09 01:48:15;;;;;;;;;10.67;10.67;;;;;23.47;44.72;102383.47;5031216;28;46643;-72
2022/07/09 01:50:40;;;;;;;;;9.00;8.00;;;;;23.53;44.68;102381.56;5035680;28;46267;-72
2022/07/09 01:53:06;;;;;;;;;8.33;7.33;;;;;23.54;44.45;102384.22;5050618;28;45862;-72
2022/07/09 01:55:31;;;;;;;;;6.00;6.00;;;;;23.54;44.71;102384.22;5041984;28;45938;-74
2022/07/09 01:57:57;;;;;;;;;8.00;7.67;;;;;23.53;44.67;102379.75;5047143;28;45409;-71
2022/07/09 02:00:23;;;;;;;;;8.00;6.33;;;;;23.54;44.65;102381.53;5039309;28;45983;-72
2022/07/09 02:02:49;;;;;;;;;7.33;6.00;;;;;23.54;44.67;102380.63;5042983;28;46038;-73
2022/07/09 02:05:14;;;;;;;;;7.00;7.00;;;;;23.43;44.44;102351.50;5047124;28;45560;-73
2022/07/09 02:07:40;;;;;;;;;8.00;7.00;;;;;23.47;44.67;102362.09;5046783;28;46611;-72
2022/07/09 02:10:06;;;;;;;;;7.33;5.33;;;;;23.45;44.79;102353.22;5046455;28;45454;-73
2022/07/09 02:12:32;;;;;;;;;11.00;9.33;;;;;23.48;44.65;102362.97;5036432;28;45777;-71
2022/07/09 02:14:57;;;;;;;;;11.67;11.67;;;;;23.48;44.77;102366.50;5051460;28;45561;-73
2022/07/09 02:17:23;;;;;;;;;10.00;10.00;;;;;23.31;44.72;102334.00;5042331;28;46667;-73
2022/07/09 02:19:49;;;;;;;;;9.00;9.00;;;;;23.50;44.89;102367.34;5046376;28;45727;-73
2022/07/09 02:22:14;;;;;;;;;8.33;8.33;;;;;23.45;44.73;102363.91;5045811;28;45458;-72
2022/07/09 02:24:43;;;;;;;;;8.33;6.33;;;;;23.39;44.75;102341.81;5049636;28;45309;-73
2022/07/09 02:27:09;;;;;;;;;8.00;7.00;;;;;23.28;44.61;102326.94;5041043;28;46401;-72
2022/07/09 02:29:35;;;;;;;;;7.00;7.00;;;;;23.47;44.76;102358.53;5056898;28;45805;-73
2022/07/09 02:32:00;;;;;;;;;7.67;6.67;;;;;23.26;44.75;102326.09;5055778;28;45433;-72
2022/07/09 02:34:26;;;;;;;;;5.67;5.67;;;;;23.43;44.98;102355.06;5053905;28;45423;-74
2022/07/09 02:36:52;;;;;;;;;7.00;7.00;;;;;23.41;45.01;102351.53;5051417;28;45267;-72
2022/07/09 02:39:18;;;;;;;;;8.33;6.33;;;;;23.18;45.74;102327.19;5053279;28;45435;-72
2022/07/09 02:41:44;;;;;;;;;7.00;7.00;;;;;23.16;45.84;102334.38;5053000;28;45310;-70
2022/07/09 02:44:09;;;;;;;;;6.67;6.67;;;;;23.00;46.05;102326.75;5050701;28;46474;-72
2022/07/09 02:46:38;;;;;;;;;7.00;7.00;;;;;23.00;45.86;102325.88;5041688;28;45989;-74
2022/07/09 02:49:04;;;;;;;;;7.00;7.00;;;;;23.15;45.72;102348.66;5032514;28;45555;-72
2022/07/09 02:51:29;;;;;;;;;6.33;6.33;;;;;23.17;45.45;102345.03;5045879;28;45734;-73
2022/07/09 02:53:55;;;;;;;;;7.00;7.00;;;;;23.18;45.47;102352.16;5051583;28;45829;-73
2022/07/09 02:56:20;;;;;;;;;8.33;7.00;;;;;23.16;45.66;102342.38;5047801;28;45425;-73
2022/07/09 02:58:46;;;;;;;;;9.67;7.00;;;;;23.19;45.34;102350.34;5049378;28;46045;-73
2022/07/09 03:01:12;;;;;;;;;7.67;7.67;;;;;23.16;45.89;102351.31;5049926;28;45576;-72
2022/07/09 03:03:37;;;;;;;;;7.00;7.00;;;;;23.08;46.27;102339.91;5040207;28;45824;-72
2022/07/09 03:06:04;;;;;;;;;8.00;7.00;;;;;22.89;46.24;102325.22;5029398;28;47082;-72
2022/07/09 03:08:29;;;;;;;;;6.33;6.33;;;;;23.06;46.07;102348.00;5032822;28;45457;-71
2022/07/09 03:10:55;;;;;;;;;6.33;6.00;;;;;23.07;45.95;102344.38;5049010;28;45486;-72
2022/07/09 03:13:20;;;;;;;;;9.00;7.33;;;;;23.08;45.88;102345.25;5051440;28;45445;-71
2022/07/09 03:15:49;;;;;;;;;8.00;7.00;;;;;22.92;45.94;102327.81;5037978;28;45556;-72
2022/07/09 03:18:15;;;;;;;;;7.67;6.00;;;;;23.08;45.84;102356.81;5050601;28;45360;-72
2022/07/09 03:20:41;;;;;;;;;8.67;6.33;;;;;23.02;45.96;102345.44;5044261;28;45497;-73
2022/07/09 03:23:06;;;;;;;;;8.00;8.00;;;;;23.06;45.87;102349.75;5051877;28;45466;-73
2022/07/09 03:25:32;;;;;;;;;7.67;7.00;;;;;22.92;45.82;102323.38;5049361;28;46102;-71
2022/07/09 03:27:59;;;;;;;;;6.33;6.33;;;;;23.04;46.05;102348.91;5057117;28;45338;-72
2022/07/09 03:30:24;;;;;;;;;6.00;6.00;;;;;23.06;46.00;102355.09;5054985;28;45292;-74
2022/07/09 03:32:51;;;;;;;;;7.00;7.00;;;;;22.97;45.97;102342.84;5053097;28;45485;-72
2022/07/09 03:35:17;;;;;;;;;8.33;7.00;;;;;22.94;46.07;102342.00;5053566;28;45811;-71
2022/07/09 03:37:42;;;;;;;;;7.00;7.00;;;;;23.02;46.13;102366.81;5056322;28;45544;-73
2022/07/09 03:40:09;;;;;;;;;7.00;7.00;;;;;23.01;45.83;102359.69;5054260;28;45869;-72
2022/07/09 03:42:34;;;;;;;;;7.00;7.00;;;;;23.01;46.17;102373.06;5054351;28;45551;-68
2022/07/09 03:45:00;;;;;;;;;7.00;7.00;;;;;22.89;46.03;102350.16;5057392;28;45473;-71
2022/07/09 03:47:26;;;;;;;;;5.33;5.00;;;;;22.94;46.10;102360.72;5054908;28;45449;-71
2022/07/09 03:49:51;;;;;;;;;7.00;7.00;;;;;22.86;46.09;102350.22;5052906;28;45393;-68
2022/07/09 03:52:17;;;;;;;;;10.33;8.00;;;;;22.86;46.21;102356.44;5053438;28;45875;-69
2022/07/09 03:54:43;;;;;;;;;9.00;7.00;;;;;22.94;46.20;102371.41;5045025;28;46597;-72
2022/07/09 03:57:09;;;;;;;;;8.33;7.67;;;;;22.86;46.32;102360.91;5043578;28;45597;-70
2022/07/09 03:59:35;;;;;;;;;10.33;8.00;;;;;22.91;46.38;102372.34;5050767;28;45509;-70
2022/07/09 04:02:01;;;;;;;;;8.33;8.33;;;;;22.90;46.49;102380.41;5049982;28;45521;-70
2022/07/09 04:04:26;;;;;;;;;10.33;9.00;;;;;22.61;47.56;102366.81;5042485;28;46357;-70
2022/07/09 04:07:01;;;;;;;;;7.00;7.00;;;;;22.58;47.22;102374.00;5049776;28;45583;-70
2022/07/09 04:09:27;;;;;;;;;6.67;6.33;;;;;22.52;47.59;102383.06;5051539;28;45468;-72
2022/07/09 04:11:52;;;;;;;;;8.67;7.00;;;;;22.60;47.24;102385.53;5047512;28;45665;-73
2022/07/09 04:14:19;;;;;;;;;8.00;8.00;;;;;22.50;46.96;102363.50;5039310;28;45998;-72
2022/07/09 04:16:48;;;;;;;;;8.00;8.00;;;;;22.71;46.90;102387.97;5038672;28;45520;-72
2022/07/09 04:19:14;;;;;;;;;8.00;7.33;;;;;22.72;46.89;102395.94;5042054;28;45477;-71
2022/07/09 04:21:39;;;;;;;;;10.00;7.33;;;;;22.76;46.74;102392.31;5037562;28;45446;-72
2022/07/09 04:24:05;;;;;;;;;8.33;8.00;;;;;22.66;47.51;102369.41;5042150;28;46113;-70
2022/07/09 04:26:31;;;;;;;;;8.00;8.00;;;;;22.58;48.17;102388.25;5047965;28;45567;-74
2022/07/09 04:28:56;;;;;;;;;10.00;10.00;;;;;22.46;47.78;102371.63;5054305;28;45677;-72
2022/07/09 04:31:22;;;;;;;;;9.67;9.00;;;;;22.65;47.49;102389.00;5056654;28;45525;-71
2022/07/09 04:33:49;;;;;;;;;9.33;8.00;;;;;22.50;48.64;102394.69;5055489;28;45540;-70
2022/07/09 04:36:15;;;;;;;;;9.33;9.00;;;;;22.52;47.89;102388.41;5050124;28;45456;-72
2022/07/09 04:38:40;;;;;;;;;8.67;8.00;;;;;22.61;47.34;102384.63;5047927;28;45562;-69
2022/07/09 04:41:09;;;;;;;;;7.00;7.00;;;;;22.71;47.21;102390.63;5047919;28;45499;-72
2022/07/09 04:43:34;;;;;;;;;10.67;7.67;;;;;22.72;46.91;102373.72;5048090;28;47137;-72
2022/07/09 04:46:00;;;;;;;;;8.00;8.00;;;;;22.72;46.97;102368.38;5041617;28;45633;-71
2022/07/09 04:48:26;;;;;;;;;8.33;8.33;;;;;22.74;46.60;102363.88;5029077;28;45407;-74
2022/07/09 04:50:52;;;;;;;;;6.67;6.67;;;;;22.76;46.68;102356.72;5043143;28;45452;-74
2022/07/09 04:53:17;;;;;;;;;7.00;7.00;;;;;22.89;46.36;102378.66;5045401;28;45489;-74
2022/07/09 04:55:43;;;;;;;;;11.00;10.00;;;;;22.84;46.81;102370.75;5040983;28;45534;-73
2022/07/09 04:58:09;;;;;;;;;9.00;9.00;;;;;22.64;47.97;102379.22;5024581;28;45481;-73
2022/07/09 05:00:35;;;;;;;;;9.00;9.00;;;;;22.51;48.33;102377.72;5037968;28;45572;-72
2022/07/09 05:03:01;;;;;;;;;8.33;8.33;;;;;22.44;47.96;102371.66;5050329;28;45621;-69
2022/07/09 05:05:27;;;;;;;;;8.00;8.00;;;;;22.58;47.54;102387.38;5048109;28;46273;-72
2022/07/09 05:07:52;;;;;;;;;10.00;8.00;;;;;22.70;47.38;102387.09;5052061;28;45588;-69
2022/07/09 05:10:19;;;;;;;;;11.00;8.67;;;;;22.66;47.62;102382.75;5048462;28;46526;-74
2022/07/09 05:12:45;;;;;;;;;9.67;7.33;;;;;22.66;47.78;102390.75;5052081;28;46219;-71
2022/07/09 05:15:12;;;;;;;;;10.00;10.00;;;;;22.57;48.40;102386.50;5054952;28;45436;-73
2022/07/09 05:17:38;;;;;;;;;2.00;2.00;;;;;22.50;48.11;102390.22;5050363;28;45450;-73
2022/07/09 05:20:05;;;;;;;;;9.33;9.33;;;;;22.46;48.30;102371.63;5036712;28;45341;-70
2022/07/09 05:22:32;;;;;;;;;10.00;9.00;;;;;22.76;47.83;102397.66;5032070;28;46226;-70
2022/07/09 05:24:58;;;;;;;;;10.00;9.33;;;;;22.81;46.84;102366.34;5022050;28;45496;-72
2022/07/09 05:27:24;;;;;;;;;11.00;9.67;;;;;23.14;46.66;102387.00;5038645;28;45343;-70
2022/07/09 05:29:50;;;;;;;;;8.33;7.67;;;;;23.29;46.07;102378.59;5043373;28;45265;-72
2022/07/09 05:32:16;;;;;;;;;10.00;9.33;;;;;23.38;45.90;102389.06;5015011;28;45548;-72
2022/07/09 05:34:41;;;;;;;;;9.00;9.00;;;;;23.36;45.91;102374.84;5033579;28;45431;-71
2022/07/09 05:37:07;;;;;;;;;9.67;9.00;;;;;23.52;45.52;102387.84;5037802;28;45482;-72
2022/07/09 05:39:33;;;;;;;;;7.67;7.67;;;;;23.61;45.37;102387.56;5040180;28;45463;-71
2022/07/09 05:42:05;;;;;;;;;8.33;8.33;;;;;23.67;45.11;102382.94;5039525;28;45538;-72
2022/07/09 05:44:31;;;;;;;;;11.00;10.33;;;;;23.70;44.98;102380.22;5029599;28;45302;-72
2022/07/09 05:46:57;;;;;;;;;12.33;10.67;;;;;23.83;44.61;102383.44;5033886;28;45578;-69
2022/07/09 05:49:22;;;;;;;;;10.67;9.00;;;;;23.84;44.70;102384.31;5034145;28;45611;-70
2022/07/09 05:51:48;;;;;;;;;9.00;9.00;;;;;23.73;44.76;102359.63;5035928;28;46159;-72
2022/07/09 05:54:13;;;;;;;;;11.67;9.00;;;;;23.79;44.47;102368.41;5039889;28;45414;-71
2022/07/09 05:56:40;;;;;;;;;9.67;8.67;;;;;23.88;44.59;102375.31;5037831;28;45390;-70
2022/07/09 05:59:08;;;;;;;;;9.33;9.33;;;;;24.02;44.15;102380.28;5034970;28;45857;-72
2022/07/09 06:01:42;;;;;;;;;10.00;9.33;;;;;24.02;44.21;102370.44;5037488;28;46055;-71
2022/07/09 06:04:08;;;;;;;;;10.33;10.00;;;;;23.90;43.71;102331.53;5036873;28;45343;-73
2022/07/09 06:06:34;;;;;;;;;12.33;12.00;;;;;24.25;43.75;102363.53;5026094;28;45602;-71
2022/07/09 06:09:00;;;;;;;;;14.67;13.67;;;;;24.33;43.51;102358.84;5034550;28;45677;-72
2022/07/09 06:11:26;;;;;;;;;13.67;11.67;;;;;24.50;43.67;102386.00;5036027;28;45934;-71
2022/07/09 06:13:52;;;;;;;;;12.00;11.33;;;;;24.57;42.86;102381.34;5033252;28;45529;-68
2022/07/09 06:16:18;;;;;;;;;13.00;11.00;;;;;24.58;43.20;102377.72;5033114;28;45534;-71
2022/07/09 06:18:43;;;;;;;;;10.00;10.00;;;;;24.67;42.84;102382.81;5031606;28;45655;-69
2022/07/09 06:21:09;;;;;;;;;11.00;10.00;;;;;24.74;42.99;102376.31;5035206;28;45523;-71
2022/07/09 06:23:35;;;;;;;;;11.67;11.33;;;;;24.78;42.54;102373.56;5031333;28;45653;-69
2022/07/09 06:26:00;;;;;;;;;10.00;10.00;;;;;24.90;42.56;102389.25;5033901;28;45565;-71
2022/07/09 06:28:26;;;;;;;;;12.67;12.67;;;;;24.91;42.51;102373.09;5053545;28;45585;-70
2022/07/09 06:30:52;;;;;;;;;9.67;9.33;;;;;25.03;42.57;102390.59;5043356;28;45736;-71
2022/07/09 06:33:22;;;;;;;;;13.00;11.00;;;;;25.08;42.12;102388.66;5030462;28;45417;-71
2022/07/09 06:35:47;;;;;;;;;12.00;11.00;;;;;25.06;41.84;102374.44;5046621;28;46189;-69
2022/07/09 06:38:13;;;;;;;;;9.33;9.33;;;;;25.18;42.19;102389.28;5041932;28;45522;-68
2022/07/09 06:40:38;;;;;;;;;11.00;9.33;;;;;25.15;42.22;102374.13;5039662;28;45541;-73
2022/07/09 06:43:04;;;;;;;;;10.67;9.00;;;;;25.26;42.24;102378.28;5026785;28;45939;-71
2022/07/09 06:45:30;;;;;;;;;8.00;8.00;;;;;25.35;41.84;102380.66;5033233;28;45388;-70
2022/07/09 06:47:55;;;;;;;;;10.00;10.00;;;;;25.37;41.46;102379.69;5040159;28;45466;-70
2022/07/09 06:50:26;;;;;;;;;10.33;10.33;;;;;25.49;41.76;102380.19;5037325;28;45404;-69
2022/07/09 06:52:52;;;;;;;;;12.00;10.00;;;;;25.54;41.37;102384.47;5044921;28;45415;-71
2022/07/09 06:55:18;;;;;;;;;8.67;8.67;;;;;25.62;41.30;102380.63;5039700;28;45388;-71
2022/07/09 06:57:43;;;;;;;;;12.00;11.00;;;;;25.68;40.95;102378.59;5042197;28;45482;-71
2022/07/09 07:00:09;;;;;;;;;17.33;15.33;;;;;25.74;40.83;102381.06;5037989;28;45404;-70
2022/07/09 07:02:35;;;;;;;;;14.00;12.33;;;;;25.80;40.80;102378.16;5035695;28;45526;-69
2022/07/09 07:05:01;;;;;;;;;13.00;13.00;;;;;25.74;40.86;102353.34;5035616;28;45627;-70
2022/07/09 07:07:26;;;;;;;;;10.33;10.33;;;;;25.86;40.80;102371.72;5036154;28;45493;-69
2022/07/09 07:09:52;;;;;;;;;12.00;12.00;;;;;25.92;40.67;102373.31;5035662;28;46652;-70
2022/07/09 07:12:18;;;;;;;;;11.00;11.00;;;;;25.98;40.84;102373.09;5039149;28;45229;-70
2022/07/09 07:14:43;;;;;;;;;11.67;11.00;;;;;25.92;40.63;102354.53;5035785;28;45426;-70
2022/07/09 07:17:09;;;;;;;;;14.00;12.00;;;;;25.95;40.27;102355.28;5036127;28;45349;-70
2022/07/09 07:19:35;;;;;;;;;10.67;9.00;;;;;25.97;40.48;102358.78;5037670;28;46312;-68
2022/07/09 07:22:01;;;;;;;;;12.00;10.67;;;;;26.13;40.24;102377.91;5036770;28;45747;-69
2022/07/09 07:24:27;;;;;;;;;9.33;9.33;;;;;26.12;40.19;102369.88;5017700;28;45729;-70
2022/07/09 07:26:53;;;;;;;;;10.00;10.00;;;;;26.20;39.92;102370.50;5043869;28;45939;-68
2022/07/09 07:29:20;;;;;;;;;11.00;10.00;;;;;26.28;40.11;102375.56;5055905;28;46241;-71
2022/07/09 07:31:45;;;;;;;;;11.00;11.00;;;;;26.29;39.98;102380.00;5043186;28;45503;-70
2022/07/09 07:34:11;;;;;;;;;13.33;11.00;;;;;26.33;40.12;102379.81;5059619;28;45453;-70
2022/07/09 07:36:37;;;;;;;;;10.00;10.00;;;;;26.34;40.08;102381.59;5059894;28;45502;-67
2022/07/09 07:39:03;;;;;;;;;9.33;9.33;;;;;26.38;40.29;102379.63;5059529;28;46154;-69
2022/07/09 07:41:28;;;;;;;;;10.00;10.00;;;;;26.41;39.80;102374.13;5055453;28;45486;-70
2022/07/09 07:43:54;;;;;;;;;10.67;10.00;;;;;26.32;39.50;102369.16;5056334;28;45418;-69
2022/07/09 07:46:20;;;;;;;;;8.67;8.67;;;;;26.38;39.68;102374.28;5060062;28;45346;-68
2022/07/09 07:48:45;;;;;;;;;11.33;11.00;;;;;26.29;39.85;102354.03;5057279;28;45485;-69
2022/07/09 07:51:11;;;;;;;;;10.33;10.00;;;;;26.46;39.77;102385.63;5055500;28;45433;-69
2022/07/09 07:53:37;;;;;;;;;16.67;14.00;;;;;26.48;39.56;102381.06;5044805;28;45517;-68
2022/07/09 07:56:05;;;;;;;;;9.67;9.00;;;;;26.52;39.58;102379.97;5057327;28;45809;-68
2022/07/09 07:58:31;;;;;;;;;12.33;10.00;;;;;26.56;38.80;102378.09;5048091;28;45661;-68
2022/07/09 08:00:57;;;;;;;;;10.00;8.67;;;;;26.57;39.21;102375.31;5059151;28;45316;-70
2022/07/09 08:03:22;;;;;;;;;7.00;7.00;;;;;26.58;38.53;102369.03;5059026;28;45302;-69
2022/07/09 08:05:48;;;;;;;;;11.00;9.67;;;;;26.51;39.08;102364.81;5056100;28;45683;-70
2022/07/09 08:08:13;;;;;;;;;10.00;8.67;;;;;26.56;39.08;102372.72;5054123;28;45683;-71
2022/07/09 08:10:39;;;;;;;;;9.00;9.00;;;;;26.53;39.15;102353.97;5054778;28;45556;-71
2022/07/09 08:13:12;;;;;;;;;9.00;9.00;;;;;26.42;38.55;102333.78;5055987;28;45513;-72
2022/07/09 08:15:38;;;;;;;;;12.67;11.00;;;;;26.40;38.78;102324.06;5057772;28;46128;-69
2022/07/09 08:18:05;;;;;;;;;11.67;11.33;;;;;26.70;38.54;102364.13;5050948;28;45477;-71
2022/07/09 08:20:33;;;;;;;;;11.33;9.67;;;;;26.79;38.41;102369.09;5054864;28;45348;-70
2022/07/09 08:22:59;;;;;;;;;9.33;7.67;;;;;26.80;38.34;102362.81;5050278;28;45473;-72
2022/07/09 08:25:24;;;;;;;;;10.33;7.33;;;;;26.80;38.25;102350.22;5046288;28;45476;-69
2022/07/09 08:27:50;;;;;;;;;7.33;7.33;;;;;26.95;38.02;102362.16;5051525;28;45487;-71
2022/07/09 08:30:16;;;;;;;;;7.67;7.00;;;;;26.90;37.95;102342.66;5036341;28;45617;-70
2022/07/09 08:32:41;;;;;;;;;8.33;8.33;;;;;26.99;37.43;102350.34;5038467;28;45317;-69
2022/07/09 08:35:07;;;;;;;;;10.00;9.00;;;;;26.70;38.20;102332.72;5039375;28;45423;-70
2022/07/09 08:37:33;;;;;;;;;13.00;8.00;;;;;26.74;38.43;102352.28;5034001;28;45768;-68
2022/07/09 08:40:00;;;;;;;;;8.33;8.33;;;;;26.77;38.40;102354.88;5041589;28;45386;-70
2022/07/09 08:42:26;;;;;;;;;6.67;6.67;;;;;26.79;38.12;102353.88;5036423;28;45427;-71
2022/07/09 08:44:54;;;;;;;;;7.00;7.00;;;;;26.86;37.74;102360.75;5050719;28;45437;-69
2022/07/09 08:47:21;;;;;;;;;7.00;6.00;;;;;26.78;37.38;102353.91;5034412;28;46510;-70
2022/07/09 08:49:52;;;;;;;;;9.00;5.25;;;;;26.72;37.35;102332.66;5035531;28;45638;-71
2022/07/09 08:52:20;;;;;;;;;6.00;6.00;;;;;26.95;37.54;102351.41;5033149;28;45565;-73
2022/07/09 08:54:46;;;;;;;;;7.25;7.25;;;;;26.87;37.51;102318.59;5034279;28;45564;-70
2022/07/09 08:57:14;;;;;;;;;6.50;6.00;;;;;27.06;37.33;102346.47;5035245;28;47289;-69
2022/07/09 08:59:40;;;;;;;;;5.50;5.00;;;;;27.11;37.24;102348.09;5044011;28;45377;-71
2022/07/09 09:02:09;;;;;;;;;5.50;5.50;;;;;27.16;36.94;102338.00;5033794;28;45308;-71
2022/07/09 09:04:35;;;;;;;;;8.00;7.00;;;;;27.03;37.06;102317.03;5033756;28;45402;-72
2022/07/09 09:07:14;;;;;;;;;7.00;7.00;;;;;27.02;37.00;102331.38;5033421;28;45612;-70
2022/07/09 09:09:40;;;;;;;;;7.00;7.00;;;;;26.99;37.15;102338.72;5032558;28;45519;-72
2022/07/09 09:12:06;;;;;;;;;7.00;7.00;;;;;27.02;36.77;102326.00;5035388;28;45612;-71
2022/07/09 09:14:31;;;;;;;;;6.25;6.25;;;;;27.12;36.66;102333.69;5024765;28;45343;-72
2022/07/09 09:17:09;;;;;;;;;8.75;6.00;;;;;27.17;36.49;102332.56;5037885;28;45308;-73
2022/07/09 09:19:35;;;;;;;;;6.00;6.00;;;;;27.13;37.12;102320.19;5033231;28;45378;-71
2022/07/09 09:22:01;;;;;;;;;9.33;7.00;;;;;26.83;36.85;102285.56;5031370;28;45540;-71
2022/07/09 09:24:29;;;;;;;;;10.67;8.67;;;;;27.02;37.35;102323.31;5034228;28;45529;-71
2022/07/09 09:27:02;;;;;;;;;6.67;6.67;;;;;26.95;37.12;102294.94;5027834;28;45563;-69
2022/07/09 09:29:28;;;;;;;;;6.00;6.00;;;;;27.14;37.11;102318.38;5054464;28;45513;-70
2022/07/09 09:31:55;;;;;;;;;7.00;7.00;;;;;27.20;36.50;102320.84;5054064;28;45257;-68
2022/07/09 09:34:21;;;;;;;;;8.00;7.00;;;;;26.96;37.43;102285.09;5053128;28;45401;-70
2022/07/09 09:36:52;;;;;;;;;7.00;5.33;;;;;27.15;37.18;102320.13;5039840;28;45948;-69
2022/07/09 09:39:31;;;;;;;;;7.67;5.67;;;;;27.18;37.01;102320.00;5031968;28;45454;-70
2022/07/09 09:42:02;;;;;;;;;6.00;6.00;;;;;27.12;37.11;102317.56;5049896;28;45905;-70
2022/07/09 09:44:37;;;;;;;;;7.00;6.75;;;;;27.03;36.54;102326.91;5052932;28;45548;-69
2022/07/09 09:47:04;;;;;;;;;10.00;9.67;;;;;26.98;36.83;102323.50;5037680;28;45362;-70
2022/07/09 09:49:30;;;;;;;;;6.75;6.75;;;;;27.03;36.95;102332.28;5037396;28;45380;-70
2022/07/09 09:52:08;;;;;;;;;5.00;5.00;;;;;27.05;36.90;102314.25;5037446;28;45347;-72
2022/07/09 09:54:42;;;;;;;;;4.75;4.75;;;;;27.23;36.70;102331.47;5033729;28;45642;-71
2022/07/09 09:57:10;;;;;;;;;4.75;4.75;;;;;27.28;36.41;102329.44;5033277;28;46022;-70
2022/07/09 09:59:38;;;;;;;;;5.25;5.25;;;;;27.25;36.59;102318.81;5033435;28;45528;-70
2022/07/09 10:02:09;;;;;;;;;7.00;7.00;;;;;27.38;36.26;102327.22;5033578;28;45419;-69
2022/07/09 10:04:36;;;;;;;;;8.00;6.75;;;;;27.28;37.44;102332.13;5034758;28;45724;-70
2022/07/09 10:07:04;;;;;;;;;5.50;5.50;;;;;27.20;37.11;102299.31;5034114;28;45490;-71
2022/07/09 10:09:32;;;;;;;;;6.00;6.00;;;;;27.36;36.74;102311.16;5034424;28;45485;-73
2022/07/09 10:11:58;;;;;;;;;7.75;6.00;;;;;27.42;36.93;102310.88;5021986;28;45454;-70
2022/07/09 10:14:24;;;;;;;;;5.50;5.50;;;;;27.54;36.31;102313.97;5039449;28;45430;-72
2022/07/09 10:16:52;;;;;;;;;5.00;5.00;;;;;27.62;36.66;102318.09;5038819;28;46118;-70
2022/07/09 10:19:29;;;;;;;;;8.25;7.00;;;;;27.51;36.74;102300.66;5050570;28;45532;-71
2022/07/09 10:21:57;;;;;;;;;10.50;9.25;;;;;27.59;37.07;102311.94;5046874;28;45704;-73
2022/07/09 10:24:28;;;;;;;;;7.00;7.00;;;;;27.65;36.86;102307.19;5049771;28;45832;-73
2022/07/09 10:27:14;;;;;;;;;8.50;8.50;;;;;27.78;36.74;102306.63;5041151;28;46236;-74
2022/07/09 10:29:56;;;;;;;;;8.50;7.00;;;;;27.59;36.75;102306.56;5025831;28;45363;-72
2022/07/09 10:32:32;;;;;;;;;6.75;6.75;;;;;27.44;36.71;102273.16;5053005;28;45616;-73
2022/07/09 10:34:57;;;;;;;;;7.25;7.25;;;;;27.82;36.31;102309.09;5057283;28;45367;-73
2022/07/09 10:37:38;;;;;;;;;8.00;7.25;;;;;27.67;35.83;102242.53;5057706;28;46128;-71
2022/07/09 10:40:08;;;;;;;;;6.50;6.50;;;;;28.11;36.36;102302.38;5056214;28;45604;-70
2022/07/09 10:42:43;;;;;;;;;6.50;6.50;;;;;28.29;36.15;102302.47;5056125;28;45426;-70
2022/07/09 10:45:18;;;;;;;;;6.25;6.25;;;;;28.26;35.88;102300.78;5057469;28;45629;-72
2022/07/09 10:47:46;;;;;;;;;7.00;6.25;;;;;28.26;36.22;102292.72;5057868;28;46411;-73
2022/07/09 10:50:21;;;;;;;;;9.00;9.00;;;;;28.24;35.77;102261.41;5060717;28;45436;-72
2022/07/09 10:52:47;;;;;;;;;8.00;8.00;;;;;28.23;35.78;102257.81;5057334;28;45511;-73
2022/07/09 10:55:16;;;;;;;;;8.00;8.00;;;;;28.49;35.46;102288.91;5056429;28;45480;-69
2022/07/09 10:57:42;;;;;;;;;7.00;7.00;;;;;28.47;35.60;102258.47;5056412;28;45567;-71
2022/07/09 11:00:10;;;;;;;;;7.00;7.00;;;;;28.50;35.57;102254.78;5056594;28;45336;-74
2022/07/09 11:02:35;;;;;;;;;6.00;6.00;;;;;28.78;35.21;102267.72;5038569;28;45504;-69
2022/07/09 11:05:01;;;;;;;;;6.00;6.00;;;;;28.81;35.27;102266.69;5056496;28;45505;-71
2022/07/09 11:07:27;;;;;;;;;6.00;6.00;;;;;28.89;34.71;102267.19;5055830;28;45511;-71
2022/07/09 11:10:00;;;;;;;;;7.00;5.00;;;;;28.84;34.61;102255.75;5056091;28;45529;-68
2022/07/09 11:12:26;;;;;;;;;7.50;7.50;;;;;28.66;34.70;102242.25;5044323;28;45397;-68
2022/07/09 11:14:52;;;;;;;;;5.75;4.25;;;;;28.93;34.50;102266.94;5038415;28;45300;-71
2022/07/09 11:17:21;;;;;;;;;6.00;5.75;;;;;29.03;33.48;102250.28;5049087;28;45442;-70
2022/07/09 11:19:48;;;;;;;;;5.25;5.25;;;;;29.15;33.77;102260.47;5055715;28;45475;-69